Ida — C4CZ2 — position and weather

sailwx.info

Track history (hours):
 
Tides and Currents Weather Stations Pressure Air Temp Water Temp Dewpoint Dewpoint Depression Visibility Wind Speed Wind Dir Waves Ship Positions

Ida

Last reported at 2016-Jun-29 08:33 UTC. Time now 2016-Jun-29 09:16 UTC.
Position N 50°05' W 003°41'.

Length 82 m; draft 3.9 m.

Type: Cargo ship. MMSI: 210319000.

Date/timePositionNaut miles runAvg speedWind from/ knotsBaromVisibWave heightAir tempDewpointWater temp
2016-Jun-29 08:33N 50°05' W 003°41'9 9.3
2016-Jun-29 07:34N 50°07' W 003°27'9 9.4
2016-Jun-29 06:34N 50°09' W 003°12'9 9.1
2016-Jun-29 05:33N 50°11' W 002°58'104 7.4
2016-Jun-28 15:30N 50°30' W 000°18'7 7.5
2016-Jun-28 14:33N 50°32' W 000°07'7 7.5
2016-Jun-28 13:33N 50°33' E 000°04'8 8.0
2016-Jun-28 12:33N 50°35' E 000°17'43 9.7
2016-Jun-28 08:07N 50°58' E 001°15'5 8.7
2016-Jun-28 07:32N 51°01' E 001°21'8 7.9
2016-Jun-28 06:32N 51°06' E 001°31'14 6.9
2016-Jun-28 04:34N 51°15' E 001°47'9 8.9
2016-Jun-28 03:34N 51°23' E 001°54'1010.5
2016-Jun-28 02:33N 51°31' E 002°03'1111.4
2016-Jun-28 01:34N 51°40' E 002°15'153 8.5
2016-Jun-27 07:33N 53°34' E 005°04'9 8.6
2016-Jun-27 06:34N 53°37' E 005°17'9 9.2
2016-Jun-27 05:34N 53°40' E 005°32'9 9.3
2016-Jun-27 04:33N 53°44' E 005°46'9 9.0
2016-Jun-27 03:31N 53°47' E 006°01'16 8.2
2016-Jun-27 01:33N 53°52' E 006°27'7 7.6
2016-Jun-27 00:33N 53°54' E 006°40'7 7.2
2016-Jun-26 23:32N 53°55' E 006°52'7 7.6
2016-Jun-26 22:33N 53°57' E 007°04'9 8.5
2016-Jun-26 21:32N 53°59' E 007°18'10 9.3
2016-Jun-26 20:26N 54°02' E 007°36'9 9.9
2016-Jun-26 19:33N 54°02' E 007°50'1010.5
2016-Jun-26 18:33N 54°01' E 008°08'1111.3
2016-Jun-26 17:33N 53°59' E 008°27'9 9.2
2016-Jun-26 16:33N 53°55' E 008°41'7 7.1
2016-Jun-26 15:33N 53°51' E 008°50'6 6.5
2016-Jun-26 14:33N 53°52' E 009°01'5 5.1
2016-Jun-26 13:33N 53°54' E 009°09'0 0.4
2016-Jun-26 12:33N 53°54' E 009°09'2 1.8
2016-Jun-26 11:33N 53°55' E 009°11'8 8.1
2016-Jun-26 10:33N 54°02' E 009°18'32 6.2
2016-Jun-26 05:23N 54°22' E 010°01'4 5.0
2016-Jun-26 04:33N 54°22' E 010°09'3 3.3
2016-Jun-26 03:33N 54°24' E 010°12'18 7.8
2016-Jun-26 01:15N 54°35' E 010°38'6 8.0
2016-Jun-26 00:33N 54°35' E 010°47'8 7.8
2016-Jun-25 23:33N 54°36' E 011°01'8 8.4
2016-Jun-25 22:33N 54°35' E 011°15'9 8.8
2016-Jun-25 21:33N 54°31' E 011°29'8 8.2
2016-Jun-25 20:33N 54°28' E 011°42'8 8.0
2016-Jun-25 19:33N 54°27' E 011°56'8 8.3
2016-Jun-25 18:33N 54°28' E 012°10'9 8.6
2016-Jun-25 17:34N 54°36' E 012°15'9 8.8
2016-Jun-25 16:32N 54°42' E 012°27'21 9.0
2016-Jun-25 14:10N 54°51' E 012°60'5 9.1
2016-Jun-25 13:33N 54°53' E 013°09'9 9.5
2016-Jun-25 12:33N 54°56' E 013°24'10 9.8
2016-Jun-25 11:33N 54°60' E 013°40'9 9.4
2016-Jun-25 10:33N 55°03' E 013°56'8 8.5
2016-Jun-25 09:33N 55°08' E 014°07'8 8.5
2016-Jun-25 08:33N 55°14' E 014°18'9 9.0
2016-Jun-25 07:33N 55°22' E 014°27'9 9.0
2016-Jun-25 06:33N 55°28' E 014°38'9 9.3
2016-Jun-25 05:34N 55°33' E 014°52'10 9.6
2016-Jun-25 04:34N 55°37' E 015°07'10 9.7
2016-Jun-25 03:34N 55°42' E 015°22'1110.0
2016-Jun-25 02:27N 55°48' E 015°39'9 9.9
2016-Jun-25 01:33N 55°52' E 015°53'30 9.5
2016-Jun-24 22:25N 56°07' E 016°39'257 9.1
2016-Jun-23 18:17N 59°17' E 022°01'7 9.2
2016-Jun-23 17:30N 59°22' E 022°12'38 9.2
2016-Jun-23 13:23N 59°37' E 023°20'8 9.3
2016-Jun-23 12:32N 59°39' E 023°35'9 9.4
2016-Jun-23 11:33N 59°42' E 023°53'20 9.3
2016-Jun-23 09:25N 59°47' E 024°31'65 9.0
2016-Jun-23 02:13N 60°01' E 026°37'6 8.8
2016-Jun-23 01:31N 60°01' E 026°49'8 8.5
2016-Jun-23 00:33N 60°01' E 027°06'9 9.0
2016-Jun-22 23:34N 60°05' E 027°21'9 8.9
2016-Jun-22 22:32N 60°10' E 027°37'9 8.8
2016-Jun-22 21:33N 60°15' E 027°51'9 9.2
2016-Jun-22 20:34N 60°23' E 028°02'  
Track history (hours):
 
Tides and Currents Weather Stations Pressure Air Temp Water Temp Dewpoint Dewpoint Depression Visibility Wind Speed Wind Dir Waves Ship Positions

Ida

Last reported at 2016-Jun-29 08:33 UTC. Time now 2016-Jun-29 09:16 UTC.
Position N 50°05' W 003°41'.

Length 82 m; draft 3.9 m.

Type: Cargo ship. MMSI: 210319000.

Date/timePositionNaut miles runAvg speedWind from/ knotsBaromVisibWave heightAir tempDewpointWater temp
2016-Jun-29 08:33N 50°05' W 003°41'9 9.3
2016-Jun-29 07:34N 50°07' W 003°27'9 9.4
2016-Jun-29 06:34N 50°09' W 003°12'9 9.1
2016-Jun-29 05:33N 50°11' W 002°58'104 7.4
2016-Jun-28 15:30N 50°30' W 000°18'7 7.5
2016-Jun-28 14:33N 50°32' W 000°07'7 7.5
2016-Jun-28 13:33N 50°33' E 000°04'8 8.0
2016-Jun-28 12:33N 50°35' E 000°17'43 9.7
2016-Jun-28 08:07N 50°58' E 001°15'5 8.7
2016-Jun-28 07:32N 51°01' E 001°21'8 7.9
2016-Jun-28 06:32N 51°06' E 001°31'14 6.9
2016-Jun-28 04:34N 51°15' E 001°47'9 8.9
2016-Jun-28 03:34N 51°23' E 001°54'1010.5
2016-Jun-28 02:33N 51°31' E 002°03'1111.4
2016-Jun-28 01:34N 51°40' E 002°15'153 8.5
2016-Jun-27 07:33N 53°34' E 005°04'9 8.6
2016-Jun-27 06:34N 53°37' E 005°17'9 9.2
2016-Jun-27 05:34N 53°40' E 005°32'9 9.3
2016-Jun-27 04:33N 53°44' E 005°46'9 9.0
2016-Jun-27 03:31N 53°47' E 006°01'16 8.2
2016-Jun-27 01:33N 53°52' E 006°27'7 7.6
2016-Jun-27 00:33N 53°54' E 006°40'7 7.2
2016-Jun-26 23:32N 53°55' E 006°52'7 7.6
2016-Jun-26 22:33N 53°57' E 007°04'9 8.5
2016-Jun-26 21:32N 53°59' E 007°18'10 9.3
2016-Jun-26 20:26N 54°02' E 007°36'9 9.9
2016-Jun-26 19:33N 54°02' E 007°50'1010.5
2016-Jun-26 18:33N 54°01' E 008°08'1111.3
2016-Jun-26 17:33N 53°59' E 008°27'9 9.2
2016-Jun-26 16:33N 53°55' E 008°41'7 7.1
2016-Jun-26 15:33N 53°51' E 008°50'6 6.5
2016-Jun-26 14:33N 53°52' E 009°01'5 5.1
2016-Jun-26 13:33N 53°54' E 009°09'0 0.4
2016-Jun-26 12:33N 53°54' E 009°09'2 1.8
2016-Jun-26 11:33N 53°55' E 009°11'8 8.1
2016-Jun-26 10:33N 54°02' E 009°18'32 6.2
2016-Jun-26 05:23N 54°22' E 010°01'4 5.0
2016-Jun-26 04:33N 54°22' E 010°09'3 3.3
2016-Jun-26 03:33N 54°24' E 010°12'18 7.8
2016-Jun-26 01:15N 54°35' E 010°38'6 8.0
2016-Jun-26 00:33N 54°35' E 010°47'8 7.8
2016-Jun-25 23:33N 54°36' E 011°01'8 8.4
2016-Jun-25 22:33N 54°35' E 011°15'9 8.8
2016-Jun-25 21:33N 54°31' E 011°29'8 8.2
2016-Jun-25 20:33N 54°28' E 011°42'8 8.0
2016-Jun-25 19:33N 54°27' E 011°56'8 8.3
2016-Jun-25 18:33N 54°28' E 012°10'9 8.6
2016-Jun-25 17:34N 54°36' E 012°15'9 8.8
2016-Jun-25 16:32N 54°42' E 012°27'21 9.0
2016-Jun-25 14:10N 54°51' E 012°60'5 9.1
2016-Jun-25 13:33N 54°53' E 013°09'9 9.5
2016-Jun-25 12:33N 54°56' E 013°24'10 9.8
2016-Jun-25 11:33N 54°60' E 013°40'9 9.4
2016-Jun-25 10:33N 55°03' E 013°56'8 8.5
2016-Jun-25 09:33N 55°08' E 014°07'8 8.5
2016-Jun-25 08:33N 55°14' E 014°18'9 9.0
2016-Jun-25 07:33N 55°22' E 014°27'9 9.0
2016-Jun-25 06:33N 55°28' E 014°38'9 9.3
2016-Jun-25 05:34N 55°33' E 014°52'10 9.6
2016-Jun-25 04:34N 55°37' E 015°07'10 9.7
2016-Jun-25 03:34N 55°42' E 015°22'1110.0
2016-Jun-25 02:27N 55°48' E 015°39'9 9.9
2016-Jun-25 01:33N 55°52' E 015°53'30 9.5
2016-Jun-24 22:25N 56°07' E 016°39'257 9.1
2016-Jun-23 18:17N 59°17' E 022°01'7 9.2
2016-Jun-23 17:30N 59°22' E 022°12'38 9.2
2016-Jun-23 13:23N 59°37' E 023°20'8 9.3
2016-Jun-23 12:32N 59°39' E 023°35'9 9.4
2016-Jun-23 11:33N 59°42' E 023°53'20 9.3
2016-Jun-23 09:25N 59°47' E 024°31'65 9.0
2016-Jun-23 02:13N 60°01' E 026°37'6 8.8
2016-Jun-23 01:31N 60°01' E 026°49'8 8.5
2016-Jun-23 00:33N 60°01' E 027°06'9 9.0
2016-Jun-22 23:34N 60°05' E 027°21'9 8.9
2016-Jun-22 22:32N 60°10' E 027°37'9 8.8
2016-Jun-22 21:33N 60°15' E 027°51'9 9.2
2016-Jun-22 20:34N 60°23' E 028°02'  

Dump ship's entire track history